Time;durP1;ratioP1;P1;durP2;ratioP2;P2;SDS_P1;SDS_P2;PMS_P1;PMS_P2;Temp;Humidity;BMP_temperature;BMP_pressure;BME280_temperature;BME280_humidity;BME280_pressure;Samples;Min_cycle;Max_cycle;Signal;HPM_P1;HPM_P2
2021/09/30 00:02:11;;;;;;;9.07;4.80;;;;;;;14.93;100.00;98597.69;5029933;28;20030;-79
2021/09/30 00:04:36;;;;;;;9.23;4.95;;;;;;;14.97;100.00;98611.69;5029200;28;20017;-77
2021/09/30 00:07:07;;;;;;;9.90;5.30;;;;;;;14.93;100.00;98602.38;5029789;28;20032;-79
2021/09/30 00:09:32;;;;;;;7.57;4.10;;;;;;;14.92;100.00;98609.84;5031175;28;20025;-78
2021/09/30 00:12:05;;;;;;;8.07;4.47;;;;;;;14.95;100.00;98606.47;5040700;28;20048;-79
2021/09/30 00:14:50;;;;;;;6.80;4.30;;;;;;;14.85;100.00;98597.59;5051032;28;20017;-81
2021/09/30 00:17:36;;;;;;;9.43;4.22;;;;;;;14.84;100.00;98601.47;5033854;28;20021;-82
2021/09/30 00:49:49;;;;;;;4.68;2.30;;;;;;;14.63;100.00;98603.03;5057572;28;20120;-80
2021/09/30 00:52:32;;;;;;;3.00;1.80;;;;;;;14.52;100.00;98596.06;5055748;28;20060;-81
2021/09/30 01:18:41;;;;;;;3.40;1.90;;;;;;;14.58;100.00;98631.47;5054925;28;20078;-79
2021/09/30 01:46:37;;;;;;;5.32;2.38;;;;;;;13.90;100.00;98566.09;5051347;28;20531;-80
2021/09/30 03:00:28;;;;;;;4.55;2.55;;;;;;;14.17;100.00;98612.09;5036466;28;20044;-78
2021/09/30 03:02:57;;;;;;;7.28;2.70;;;;;;;14.16;100.00;98604.16;5035860;28;20030;-78
2021/09/30 03:05:24;;;;;;;7.63;2.80;;;;;;;14.15;100.00;98603.34;5036393;28;20052;-81
2021/09/30 03:07:52;;;;;;;7.00;2.63;;;;;;;14.22;100.00;98633.22;5038003;28;20022;-80
2021/09/30 03:10:20;;;;;;;9.95;3.20;;;;;;;14.11;100.00;98623.50;5030206;28;20398;-80
2021/09/30 03:12:48;;;;;;;5.95;2.90;;;;;;;14.14;100.00;98629.22;5036535;28;20577;-80
2021/09/30 03:15:30;;;;;;;6.88;2.75;;;;;;;14.20;100.00;98632.69;5036475;28;20033;-80
2021/09/30 03:18:50;;;;;;;4.38;2.60;;;;;;;14.29;100.00;98630.84;5016463;28;20033;-80
2021/09/30 03:23:15;;;;;;;5.18;2.80;;;;;;;14.25;100.00;98649.13;5041963;28;20048;-80
2021/09/30 03:25:46;;;;;;;5.28;2.78;;;;;;;14.24;100.00;98661.22;5049327;28;20035;-81
2021/09/30 03:28:12;;;;;;;6.72;3.60;;;;;;;14.16;100.00;98653.69;5043799;28;20449;-80
2021/09/30 03:30:38;;;;;;;5.72;2.90;;;;;;;14.14;100.00;98667.72;5047181;28;20021;-79
2021/09/30 03:33:06;;;;;;;11.88;3.80;;;;;;;14.17;100.00;98672.63;5037336;28;20028;-80
2021/09/30 03:35:32;;;;;;;7.35;3.00;;;;;;;14.19;100.00;98669.59;5044558;28;20024;-80
2021/09/30 03:38:00;;;;;;;5.47;3.47;;;;;;;14.16;100.00;98659.19;5048053;28;20044;-80
2021/09/30 03:40:25;;;;;;;5.40;3.40;;;;;;;14.11;100.00;98667.50;5038555;28;20060;-79
2021/09/30 03:42:51;;;;;;;7.10;4.07;;;;;;;14.07;100.00;98682.97;5036476;28;20029;-80
2021/09/30 03:45:16;;;;;;;7.22;3.95;;;;;;;14.10;100.00;98683.19;5036463;28;20022;-81
2021/09/30 03:47:42;;;;;;;7.57;4.57;;;;;;;14.10;100.00;98680.44;5035290;28;20479;-81
2021/09/30 03:50:14;;;;;;;8.82;4.15;;;;;;;14.19;100.00;98688.84;5034927;28;20083;-79
2021/09/30 04:00:30;;;;;;;7.55;3.85;;;;;;;14.31;100.00;98679.00;5046355;28;20091;-80
2021/09/30 04:02:55;;;;;;;8.15;3.40;;;;;;;14.25;100.00;98679.38;5056377;28;20482;-81
2021/09/30 04:05:21;;;;;;;6.13;2.95;;;;;;;14.29;100.00;98681.22;5046606;28;20116;-78
2021/09/30 04:07:46;;;;;;;9.80;3.80;;;;;;;14.11;100.00;98653.75;5035953;28;20030;-80
2021/09/30 04:10:12;;;;;;;9.23;3.72;;;;;;;14.31;100.00;98683.69;5038478;28;20028;-81
2021/09/30 04:12:37;;;;;;;7.22;3.22;;;;;;;14.18;100.00;98681.69;5039443;28;20026;-81
2021/09/30 04:15:03;;;;;;;6.78;3.58;;;;;;;14.26;100.00;98686.50;5054206;28;20017;-83
2021/09/30 04:17:29;;;;;;;7.03;3.67;;;;;;;14.26;100.00;98681.81;5051331;28;20025;-81
2021/09/30 04:19:54;;;;;;;7.00;3.42;;;;;;;14.28;100.00;98687.84;5039728;28;20332;-79
2021/09/30 04:22:19;;;;;;;6.20;3.25;;;;;;;14.04;100.00;98662.38;5036108;28;20120;-80
2021/09/30 04:24:47;;;;;;;6.50;3.28;;;;;;;14.20;100.00;98687.72;5036054;28;20031;-80
2021/09/30 04:27:13;;;;;;;9.38;3.53;;;;;;;14.31;100.00;98702.94;5041609;28;20112;-82
2021/09/30 04:29:38;;;;;;;6.40;3.78;;;;;;;14.33;100.00;98703.50;5041907;28;20025;-81
2021/09/30 04:32:04;;;;;;;6.20;3.42;;;;;;;14.36;100.00;98700.94;5040511;28;20021;-79
2021/09/30 04:34:29;;;;;;;6.90;3.10;;;;;;;14.32;100.00;98708.13;5049005;28;20087;-79
2021/09/30 04:36:55;;;;;;;8.27;3.50;;;;;;;14.38;100.00;98712.47;5054048;28;20029;-82
2021/09/30 04:39:20;;;;;;;7.95;3.42;;;;;;;14.38;100.00;98711.66;5059013;28;20020;-80
2021/09/30 04:41:47;;;;;;;8.13;3.80;;;;;;;14.45;100.00;98718.41;5065047;28;20112;-78
2021/09/30 04:44:13;;;;;;;7.13;3.90;;;;;;;14.41;100.00;98711.88;5055327;28;20021;-79
2021/09/30 04:46:39;;;;;;;8.65;4.00;;;;;;;14.42;100.00;98718.19;5053488;28;20033;-79
2021/09/30 04:49:05;;;;;;;10.35;3.72;;;;;;;14.38;100.00;98719.91;5038929;28;20497;-79
2021/09/30 04:51:30;;;;;;;6.90;3.22;;;;;;;14.30;100.00;98715.06;5039698;28;20026;-81
2021/09/30 04:53:55;;;;;;;7.97;3.42;;;;;;;14.35;100.00;98712.25;5042375;28;20036;-81
2021/09/30 04:56:21;;;;;;;7.30;3.33;;;;;;;14.37;100.00;98723.78;5043864;28;20064;-81
2021/09/30 04:58:47;;;;;;;6.50;3.28;;;;;;;14.39;100.00;98724.31;5043216;28;20104;-80
2021/09/30 05:01:12;;;;;;;7.25;3.45;;;;;;;14.41;100.00;98727.56;5045060;28;20120;-79
2021/09/30 05:03:38;;;;;;;6.88;3.75;;;;;;;14.34;100.00;98724.41;5041478;28;20116;-78
2021/09/30 05:06:03;;;;;;;8.43;4.70;;;;;;;14.48;100.00;98739.00;5021666;28;20510;-80
2021/09/30 05:08:33;;;;;;;7.15;3.58;;;;;;;14.47;100.00;98734.63;5035615;28;20492;-76
2021/09/30 05:10:59;;;;;;;8.75;3.60;;;;;;;14.32;100.00;98730.16;5030671;28;20033;-73
2021/09/30 05:13:35;;;;;;;6.97;3.20;;;;;;;14.29;100.00;98719.75;5036933;28;20022;-74
2021/09/30 05:16:01;;;;;;;5.68;3.78;;;;;;;14.31;100.00;98735.97;5040385;28;20037;-77
2021/09/30 05:18:26;;;;;;;23.90;3.67;;;;;;;14.43;100.00;98736.34;5031318;28;20562;-74
2021/09/30 05:20:52;;;;;;;11.85;4.63;;;;;;;14.54;100.00;98748.00;5028355;28;20061;-77
2021/09/30 05:23:17;;;;;;;8.75;4.28;;;;;;;14.55;100.00;98750.47;5030603;28;20029;-75
2021/09/30 05:25:43;;;;;;;11.90;4.43;;;;;;;14.64;100.00;98748.66;5032105;28;20041;-74
2021/09/30 05:28:08;;;;;;;7.40;4.20;;;;;;;14.59;100.00;98737.72;5030282;28;20029;-75
2021/09/30 05:30:33;;;;;;;8.02;3.85;;;;;;;14.48;100.00;98733.50;5029750;28;20036;-74
2021/09/30 05:32:59;;;;;;;7.78;4.00;;;;;;;14.50;100.00;98738.72;5031987;28;20059;-73
2021/09/30 05:35:25;;;;;;;10.02;4.15;;;;;;;14.48;100.00;98733.50;5035360;28;20032;-77
2021/09/30 05:37:50;;;;;;;8.38;4.22;;;;;;;14.48;100.00;98734.31;5037715;28;20041;-74
2021/09/30 05:40:16;;;;;;;8.32;4.75;;;;;;;14.56;100.00;98735.59;5037657;28;20028;-73
2021/09/30 05:42:43;;;;;;;9.20;4.57;;;;;;;14.58;100.00;98747.09;5037219;28;20107;-73
2021/09/30 05:45:15;;;;;;;8.15;4.60;;;;;;;14.63;100.00;98751.72;5038502;28;20018;-73
2021/09/30 05:47:42;;;;;;;8.80;4.15;;;;;;;14.67;100.00;98747.22;5032393;28;20501;-76
2021/09/30 05:50:08;;;;;;;9.50;4.90;;;;;;;14.65;100.00;98741.22;5039685;28;20034;-75
2021/09/30 05:52:34;;;;;;;7.18;4.38;;;;;;;14.71;100.00;98757.34;5035855;28;20021;-73
2021/09/30 05:55:00;;;;;;;13.07;5.18;;;;;;;14.85;100.00;98762.84;5038263;28;20377;-73
2021/09/30 05:57:25;;;;;;;12.85;6.18;;;;;;;14.80;100.00;98755.53;5038111;28;20021;-74
2021/09/30 05:59:54;;;;;;;8.85;5.10;;;;;;;14.80;100.00;98752.78;5036898;28;20040;-74
2021/09/30 06:10:39;;;;;;;9.30;5.50;;;;;;;14.88;100.00;98771.34;5040388;28;20075;-74
2021/09/30 06:13:09;;;;;;;12.85;5.28;;;;;;;14.97;100.00;98782.50;5041662;28;20499;-74
2021/09/30 06:15:38;;;;;;;10.60;5.22;;;;;;;14.99;100.00;98771.97;5041884;28;20024;-73
2021/09/30 06:18:07;;;;;;;10.60;5.07;;;;;;;14.91;100.00;98786.47;5042443;28;20045;-75
2021/09/30 06:20:33;;;;;;;15.70;5.90;;;;;;;14.88;100.00;98776.84;5041150;28;20426;-74
2021/09/30 06:22:58;;;;;;;12.07;5.68;;;;;;;15.03;100.00;98786.78;5041964;28;20051;-73
2021/09/30 06:25:23;;;;;;;10.05;5.55;;;;;;;14.95;100.00;98768.19;5042728;28;20488;-73
2021/09/30 06:27:49;;;;;;;18.40;9.07;;;;;;;15.13;100.00;98796.81;5042111;28;20705;-73
2021/09/30 06:30:15;;;;;;;14.38;8.57;;;;;;;15.21;100.00;98801.59;5044790;28;20033;-73
2021/09/30 06:32:40;;;;;;;9.50;5.63;;;;;;;15.16;100.00;98804.47;5053592;28;20061;-73
2021/09/30 06:35:06;;;;;;;11.38;4.90;;;;;;;15.18;100.00;98813.25;5053306;28;20466;-73
2021/09/30 06:37:32;;;;;;;10.10;4.32;;;;;;;15.22;100.00;98825.31;5052720;28;20098;-73
2021/09/30 06:39:58;;;;;;;15.65;5.85;;;;;;;15.30;100.00;98822.66;5052979;28;20036;-72
2021/09/30 06:42:23;;;;;;;6.70;4.45;;;;;;;15.40;100.00;98835.44;5053093;28;20478;-74
2021/09/30 06:44:50;;;;;;;11.77;5.43;;;;;;;15.46;100.00;98835.03;5053055;28;20082;-75
2021/09/30 06:47:15;;;;;;;9.55;4.75;;;;;;;15.49;100.00;98825.34;5053093;28;20044;-73
2021/09/30 06:49:41;;;;;;;8.40;4.40;;;;;;;15.66;100.00;98836.59;5054348;28;20029;-73
2021/09/30 06:52:06;;;;;;;6.72;4.10;;;;;;;15.74;100.00;98840.56;5055387;28;20116;-74
2021/09/30 06:54:32;;;;;;;8.02;3.90;;;;;;;15.83;100.00;98839.53;5054620;28;20049;-76
2021/09/30 06:56:57;;;;;;;7.07;3.80;;;;;;;15.90;100.00;98842.72;5056561;28;20024;-74
2021/09/30 06:59:24;;;;;;;12.98;4.22;;;;;;;16.05;100.00;98845.16;5055883;28;20089;-74
2021/09/30 07:01:50;;;;;;;6.85;3.70;;;;;;;16.23;100.00;98850.81;5054911;28;20036;-74
2021/09/30 07:04:16;;;;;;;8.48;3.75;;;;;;;16.29;100.00;98852.38;5054245;28;20033;-73
2021/09/30 07:06:42;;;;;;;6.68;3.88;;;;;;;16.24;100.00;98856.06;5051745;28;20116;-74
2021/09/30 07:09:07;;;;;;;6.65;3.50;;;;;;;16.23;100.00;98856.34;5053040;28;20017;-75
2021/09/30 07:11:33;;;;;;;7.75;3.45;;;;;;;16.25;100.00;98867.91;5052752;28;20041;-74
2021/09/30 07:13:58;;;;;;;8.80;3.20;;;;;;;16.32;100.00;98866.34;5052444;28;20064;-74
2021/09/30 07:16:24;;;;;;;7.72;3.40;;;;;;;16.11;100.00;98858.81;5052691;28;20079;-75
2021/09/30 07:18:50;;;;;;;5.50;3.15;;;;;;;16.21;100.00;98875.19;5052623;28;20028;-73
2021/09/30 07:21:16;;;;;;;8.77;3.28;;;;;;;16.19;100.00;98877.44;5052101;28;20501;-73
2021/09/30 07:23:42;;;;;;;7.68;2.97;;;;;;;16.25;100.00;98876.19;5052470;28;20048;-73
2021/09/30 07:26:09;;;;;;;6.13;3.17;;;;;;;16.27;100.00;98869.25;5053008;28;20481;-73
2021/09/30 07:28:37;;;;;;;6.35;3.15;;;;;;;16.30;100.00;98867.78;5051322;28;20523;-74
2021/09/30 07:31:04;;;;;;;10.75;3.00;;;;;;;16.29;100.00;98871.69;5052285;28;20029;-73
2021/09/30 07:33:29;;;;;;;6.82;3.17;;;;;;;16.22;100.00;98871.31;5052514;28;20510;-73
2021/09/30 07:35:55;;;;;;;8.95;3.15;;;;;;;16.11;100.00;98870.69;5052583;28;20040;-73
2021/09/30 07:38:22;;;;;;;8.07;3.53;;;;;;;16.17;100.00;98874.97;5048466;28;20053;-73
2021/09/30 07:40:49;;;;;;;5.60;3.42;;;;;;;16.19;100.00;98863.63;5040049;28;20037;-73
2021/09/30 07:43:14;;;;;;;6.38;3.45;;;;;;;16.32;100.00;98876.59;5042714;28;20057;-73
2021/09/30 07:45:40;;;;;;;8.13;3.03;;;;;;;16.50;100.00;98875.63;5039928;28;20059;-73
2021/09/30 07:48:06;;;;;;;7.38;2.83;;;;;;;16.53;100.00;98877.78;5041398;28;20608;-73
2021/09/30 07:50:31;;;;;;;6.57;3.55;;;;;;;16.61;100.00;98882.56;5039479;28;20025;-73
2021/09/30 07:52:57;;;;;;;6.72;3.30;;;;;;;16.70;100.00;98885.41;5041400;28;20501;-73
2021/09/30 07:55:23;;;;;;;6.32;3.50;;;;;;;16.79;100.00;98897.38;5041072;28;20067;-73
2021/09/30 07:57:49;;;;;;;8.38;3.67;;;;;;;16.75;100.00;98896.34;5039629;28;20029;-72
2021/09/30 08:00:14;;;;;;;6.40;3.90;;;;;;;16.46;100.00;98902.22;5041465;28;20044;-73
2021/09/30 08:02:40;;;;;;;8.07;4.55;;;;;;;16.87;100.00;98904.91;5040182;28;20025;-72
2021/09/30 08:05:07;;;;;;;12.10;4.43;;;;;;;16.84;100.00;98884.25;5046271;28;20040;-74
2021/09/30 08:07:32;;;;;;;9.52;4.55;;;;;;;16.65;100.00;98902.09;5044900;28;20074;-73
2021/09/30 08:09:58;;;;;;;12.27;5.60;;;;;;;16.49;100.00;98898.84;5039583;28;20601;-74
2021/09/30 08:12:25;;;;;;;10.75;4.45;;;;;;;16.39;100.00;98910.94;5040107;28;20029;-73
2021/09/30 08:14:51;;;;;;;7.45;5.25;;;;;;;16.34;100.00;98910.25;5039717;28;20056;-73
2021/09/30 08:17:17;;;;;;;7.63;5.57;;;;;;;16.24;100.00;98913.22;5039358;28;20534;-72
2021/09/30 08:19:43;;;;;;;9.68;5.85;;;;;;;16.44;100.00;98907.25;5039575;28;20120;-72
2021/09/30 08:22:08;;;;;;;6.47;4.97;;;;;;;16.39;100.00;98910.13;5041393;28;21686;-72
2021/09/30 08:24:34;;;;;;;11.38;4.78;;;;;;;16.43;100.00;98911.97;5036323;28;20034;-72
2021/09/30 08:26:59;;;;;;;10.13;5.40;;;;;;;16.41;100.00;98905.91;5039899;28;20017;-73
2021/09/30 08:29:25;;;;;;;9.70;5.10;;;;;;;16.60;100.00;98903.06;5037009;28;20398;-74
2021/09/30 08:31:50;;;;;;;8.60;4.65;;;;;;;16.39;100.00;98916.47;5040225;28;20025;-75
2021/09/30 08:34:16;;;;;;;14.68;4.88;;;;;;;16.55;100.00;98917.78;5040826;28;20060;-74
2021/09/30 08:36:41;;;;;;;8.88;4.35;;;;;;;16.46;100.00;98918.81;5040839;28;20029;-73
2021/09/30 08:39:09;;;;;;;5.03;3.40;;;;;;;16.24;100.00;98930.59;5038806;28;20036;-73
2021/09/30 08:41:35;;;;;;;15.95;4.00;;;;;;;16.08;100.00;98930.09;5039105;28;20041;-72
2021/09/30 08:44:01;;;;;;;5.50;3.50;;;;;;;16.18;100.00;98926.31;5046645;28;20032;-73
2021/09/30 08:46:26;;;;;;;4.80;2.60;;;;;;;16.23;100.00;98939.19;5050608;28;20500;-72
2021/09/30 08:48:52;;;;;;;5.97;3.13;;;;;;;16.22;100.00;98937.56;5050839;28;20029;-73
2021/09/30 08:51:18;;;;;;;8.55;2.70;;;;;;;16.32;100.00;98942.88;5050891;28;20470;-72
2021/09/30 08:53:45;;;;;;;5.03;2.70;;;;;;;16.36;100.00;98946.63;5043979;28;20029;-72
2021/09/30 08:56:11;;;;;;;3.60;2.22;;;;;;;16.20;100.00;98942.56;5039626;28;20032;-73
2021/09/30 08:58:38;;;;;;;6.63;2.60;;;;;;;16.39;100.00;98954.31;5040425;28;20021;-72
2021/09/30 09:01:07;;;;;;;3.65;2.30;;;;;;;16.44;100.00;98951.44;5038727;28;20033;-72
2021/09/30 09:03:38;;;;;;;5.47;2.65;;;;;;;16.41;100.00;98950.09;5036106;28;20033;-73
2021/09/30 09:06:06;;;;;;;5.18;2.20;;;;;;;16.47;100.00;98961.88;5043759;28;20041;-73
2021/09/30 09:08:32;;;;;;;5.03;2.10;;;;;;;16.42;99.31;98948.97;5038767;28;20029;-73
2021/09/30 09:10:59;;;;;;;13.20;2.33;;;;;;;16.26;100.00;98961.47;5039093;28;20384;-72
2021/09/30 09:13:25;;;;;;;5.18;2.40;;;;;;;16.46;99.06;98960.22;5037835;28;20116;-72
2021/09/30 09:15:57;;;;;;;5.72;1.98;;;;;;;16.60;99.05;98961.88;5043008;28;20112;-72
2021/09/30 09:18:26;;;;;;;5.05;2.47;;;;;;;16.67;98.39;98964.22;5039651;28;20121;-73
2021/09/30 09:21:02;;;;;;;4.35;1.90;;;;;;;16.74;96.12;98956.31;5036853;28;20045;-73
2021/09/30 09:23:28;;;;;;;5.88;2.08;;;;;;;16.74;96.81;98963.78;5037303;28;20079;-72
2021/09/30 09:26:07;;;;;;;4.15;2.28;;;;;;;16.63;96.65;98967.91;5040296;28;20104;-73
2021/09/30 09:28:32;;;;;;;5.05;2.10;;;;;;;16.77;94.44;98968.69;5040144;28;20079;-73
2021/09/30 09:30:58;;;;;;;4.57;2.30;;;;;;;16.89;96.13;98958.72;5033744;28;20021;-73
2021/09/30 09:33:28;;;;;;;4.35;2.22;;;;;;;17.03;94.73;98959.53;5038431;28;20024;-73
2021/09/30 09:36:06;;;;;;;4.80;2.00;;;;;;;17.19;91.09;98964.69;5045173;28;20031;-73
2021/09/30 09:38:54;;;;;;;4.85;2.28;;;;;;;16.77;94.44;98966.75;5055494;28;20043;-74
2021/09/30 09:41:38;;;;;;;5.93;2.20;;;;;;;16.81;94.28;98967.78;5049141;28;20025;-72
2021/09/30 09:44:05;;;;;;;4.45;2.05;;;;;;;16.81;93.87;98962.25;5045930;28;20525;-72
2021/09/30 09:46:35;;;;;;;5.68;2.17;;;;;;;16.56;96.16;98960.88;5047954;28;20052;-72
2021/09/30 09:49:07;;;;;;;5.25;2.40;;;;;;;16.64;99.31;98964.00;5043522;28;20029;-73
2021/09/30 09:51:43;;;;;;;5.28;2.20;;;;;;;16.66;97.68;98968.13;5043518;28;20027;-72
2021/09/30 09:54:15;;;;;;;5.60;2.40;;;;;;;16.59;98.91;98964.97;5041326;28;20032;-73
2021/09/30 09:56:41;;;;;;;5.90;2.00;;;;;;;16.79;98.32;98970.00;5043483;28;20016;-79
2021/09/30 09:59:07;;;;;;;4.57;2.20;;;;;;;16.89;95.83;98960.69;5043736;28;20024;-76
2021/09/30 10:01:44;;;;;;;4.03;2.20;;;;;;;16.97;94.83;98971.84;5047964;28;20037;-77
2021/09/30 10:04:11;;;;;;;3.40;1.98;;;;;;;16.92;95.86;98966.41;5054209;28;20033;-78
2021/09/30 10:06:38;;;;;;;4.03;2.15;;;;;;;17.23;92.14;98963.72;5053923;28;20025;-77
2021/09/30 10:09:07;;;;;;;4.93;1.90;;;;;;;17.07;92.44;98970.78;5053981;28;20024;-77
2021/09/30 10:11:33;;;;;;;5.22;1.70;;;;;;;17.03;91.59;98958.69;5054128;28;20405;-77
2021/09/30 10:14:02;;;;;;;3.00;1.83;;;;;;;17.38;89.19;98965.31;5053850;28;20039;-81
2021/09/30 10:16:29;;;;;;;5.32;2.10;;;;;;;17.61;87.21;98973.31;5052019;28;20021;-80
2021/09/30 10:18:58;;;;;;;4.10;1.90;;;;;;;17.38;89.05;98966.13;5052108;28;20033;-82
2021/09/30 10:21:25;;;;;;;3.95;1.80;;;;;;;17.12;89.63;98959.59;5046245;28;20041;-82
2021/09/30 10:23:59;;;;;;;4.28;1.95;;;;;;;17.40;89.99;98952.78;5044474;28;20026;-81
2021/09/30 10:26:29;;;;;;;5.70;1.90;;;;;;;17.09;86.93;98943.63;5043923;28;20032;-79
2021/09/30 10:28:55;;;;;;;3.70;1.70;;;;;;;17.25;86.37;98944.88;5046447;28;20078;-74
2021/09/30 10:31:22;;;;;;;4.82;2.10;;;;;;;17.40;85.05;98947.25;5038692;28;20440;-75
2021/09/30 10:33:48;;;;;;;6.10;2.10;;;;;;;17.24;85.79;98959.00;5043530;28;20033;-75
2021/09/30 10:36:46;;;;;;;6.28;1.95;;;;;;;17.24;87.92;98951.53;5040227;28;20041;-75
2021/09/30 10:39:17;;;;;;;3.13;1.52;;;;;;;16.87;85.28;98952.72;5043191;28;20026;-75
2021/09/30 10:41:43;;;;;;;3.75;1.42;;;;;;;17.10;86.35;98943.28;5040598;28;20389;-75
2021/09/30 10:44:21;;;;;;;3.60;1.55;;;;;;;17.45;83.34;98951.84;5042617;28;20033;-75
2021/09/30 10:46:50;;;;;;;2.95;1.80;;;;;;;17.11;84.08;98953.22;5039605;28;20032;-75
2021/09/30 10:49:30;;;;;;;5.18;1.80;;;;;;;17.39;82.13;98951.16;5040246;28;20109;-75
2021/09/30 10:52:26;;;;;;;2.83;1.75;;;;;;;17.34;80.99;98958.78;5040648;28;20100;-76
2021/09/30 10:54:54;;;;;;;3.72;1.90;;;;;;;18.38;78.08;98961.78;5040895;28;20025;-74
2021/09/30 10:57:40;;;;;;;6.57;1.95;;;;;;;18.79;75.24;98966.94;5037382;28;20038;-74
2021/09/30 11:00:33;;;;;;;3.42;1.60;;;;;;;17.91;77.83;98952.31;5040140;28;20113;-75
2021/09/30 11:03:02;;;;;;;2.63;1.38;;;;;;;17.68;78.84;98953.47;5039456;28;20029;-75
2021/09/30 11:05:30;;;;;;;3.55;1.77;;;;;;;17.51;81.33;98953.38;5040781;28;20014;-75
2021/09/30 11:08:25;;;;;;;4.78;1.88;;;;;;;17.69;78.96;98954.31;5040171;28;20054;-75
2021/09/30 11:13:30;;;;;;;3.47;1.60;;;;;;;17.66;78.51;98961.28;5038079;28;20056;-72
2021/09/30 11:15:59;;;;;;;3.58;1.63;;;;;;;17.64;78.19;98958.00;5041233;28;20005;-75
2021/09/30 11:18:38;;;;;;;2.95;1.52;;;;;;;17.83;78.11;98949.47;5041130;28;20475;-77
2021/09/30 11:21:32;;;;;;;3.97;1.55;;;;;;;17.87;75.62;98951.31;5041967;28;20048;-74
2021/09/30 11:24:08;;;;;;;3.85;1.48;;;;;;;18.07;73.81;98947.16;5040315;28;20030;-73
2021/09/30 11:26:55;;;;;;;3.20;1.50;;;;;;;17.88;74.11;98944.66;5038587;28;20164;-74
2021/09/30 11:29:26;;;;;;;3.08;1.75;;;;;;;17.81;73.20;98944.28;5033971;28;20163;-76
2021/09/30 11:31:57;;;;;;;4.57;1.50;;;;;;;17.40;74.36;98941.72;5041251;28;20122;-74
2021/09/30 11:34:27;;;;;;;2.70;1.42;;;;;;;17.23;73.41;98940.81;5039791;28;20071;-73
2021/09/30 11:36:55;;;;;;;4.82;1.50;;;;;;;17.34;71.89;98934.69;5041078;28;20399;-74
2021/09/30 11:39:21;;;;;;;6.45;1.70;;;;;;;17.23;73.85;98935.28;5044029;28;20398;-73
2021/09/30 11:41:48;;;;;;;4.60;1.50;;;;;;;17.30;73.55;98924.56;5042322;28;20029;-73
2021/09/30 11:44:20;;;;;;;4.88;1.70;;;;;;;17.33;76.42;98933.06;5040658;28;20033;-73
2021/09/30 11:46:54;;;;;;;7.95;1.90;;;;;;;17.21;77.75;98943.06;5040860;28;20071;-74
2021/09/30 11:49:21;;;;;;;2.42;1.30;;;;;;;17.46;77.56;98946.00;5039522;28;20033;-78
2021/09/30 11:51:51;;;;;;;9.27;2.03;;;;;;;17.74;76.44;98940.31;5040318;28;20020;-72
2021/09/30 11:54:19;;;;;;;2.85;1.60;;;;;;;17.89;75.49;98946.25;5041662;28;20059;-74
2021/09/30 11:56:56;;;;;;;3.83;1.50;;;;;;;17.85;75.96;98950.81;5041452;28;20028;-72
2021/09/30 11:59:23;;;;;;;2.40;1.20;;;;;;;17.93;74.60;98944.50;5038034;28;20021;-73
2021/09/30 12:01:50;;;;;;;3.75;1.92;;;;;;;17.86;74.89;98948.84;5047927;28;20033;-73
2021/09/30 12:04:31;;;;;;;4.15;1.75;;;;;;;18.10;71.90;98941.81;5050356;28;20378;-73
2021/09/30 12:06:57;;;;;;;7.13;2.13;;;;;;;18.40;70.92;98950.34;5051667;28;20065;-73
2021/09/30 12:09:23;;;;;;;2.72;1.50;;;;;;;17.92;71.44;98959.47;5047772;28;20116;-73
2021/09/30 12:11:58;;;;;;;2.30;1.42;;;;;;;17.86;71.38;98959.91;5031608;28;20025;-72
2021/09/30 12:14:34;;;;;;;3.53;1.40;;;;;;;17.98;70.56;98952.66;5035367;28;20029;-73
2021/09/30 12:17:02;;;;;;;2.75;1.25;;;;;;;18.44;67.41;98959.66;5034008;28;20021;-74
2021/09/30 12:19:37;;;;;;;2.03;1.23;;;;;;;18.19;68.82;98959.28;5034421;28;20041;-72
2021/09/30 12:22:12;;;;;;;2.58;1.52;;;;;;;18.58;66.56;98946.50;5031588;28;20478;-74
2021/09/30 12:24:42;;;;;;;5.17;1.50;;;;;;;18.39;69.02;98946.75;5031834;28;20033;-73
2021/09/30 12:27:07;;;;;;;4.13;1.45;;;;;;;18.41;66.02;98943.69;5031897;28;20025;-74
2021/09/30 12:29:43;;;;;;;2.03;1.10;;;;;;;18.15;64.75;98941.66;5031660;28;20056;-77
2021/09/30 12:32:15;;;;;;;4.80;1.75;;;;;;;18.49;64.21;98940.97;5030522;28;20372;-75
2021/09/30 12:34:52;;;;;;;4.60;1.50;;;;;;;18.78;62.08;98943.13;5030223;28;20025;-77
2021/09/30 12:37:25;;;;;;;3.20;1.35;;;;;;;18.61;59.95;98943.09;5031276;28;20033;-73
2021/09/30 12:40:02;;;;;;;4.13;1.20;;;;;;;18.67;59.51;98925.16;5029738;28;20517;-76
2021/09/30 12:42:28;;;;;;;5.93;1.23;;;;;;;18.50;60.51;98936.25;5030313;28;20048;-74
2021/09/30 12:44:54;;;;;;;6.18;1.75;;;;;;;18.38;62.35;98928.53;5030074;28;20018;-77
2021/09/30 12:47:40;;;;;;;4.75;1.52;;;;;;;18.16;63.17;98926.69;5030074;28;20028;-75
2021/09/30 12:50:18;;;;;;;3.78;1.30;;;;;;;18.48;60.98;98927.41;5031316;28;20033;-77
2021/09/30 12:52:45;;;;;;;2.80;1.13;;;;;;;18.32;61.62;98929.00;5031010;28;20028;-74
2021/09/30 12:55:16;;;;;;;4.10;1.40;;;;;;;18.53;60.70;98925.31;5031344;28;20068;-75
2021/09/30 12:57:41;;;;;;;3.75;1.85;;;;;;;18.26;61.71;98920.03;5032397;28;20541;-80
2021/09/30 13:00:07;;;;;;;4.47;1.50;;;;;;;18.38;61.78;98919.41;5033317;28;20034;-75
2021/09/30 13:02:33;;;;;;;9.80;2.42;;;;;;;18.45;62.44;98900.34;5031270;28;20144;-78
2021/09/30 13:04:59;;;;;;;3.10;1.20;;;;;;;18.33;61.52;98916.75;5031056;28;20123;-78
2021/09/30 13:07:24;;;;;;;2.92;1.20;;;;;;;18.33;61.90;98902.91;5031272;28;20136;-80
2021/09/30 13:10:01;;;;;;;3.25;1.30;;;;;;;18.14;61.96;98900.41;5031231;28;20022;-75
2021/09/30 13:12:26;;;;;;;1.65;1.00;;;;;;;17.97;61.78;98901.19;5030473;28;20053;-77
2021/09/30 13:14:53;;;;;;;2.30;1.13;;;;;;;17.86;61.36;98899.84;5031512;28;20130;-77
2021/09/30 13:17:26;;;;;;;4.40;1.30;;;;;;;18.05;62.06;98903.16;5029364;28;20033;-78
2021/09/30 13:20:06;;;;;;;3.13;1.27;;;;;;;18.04;61.75;98895.97;5029368;28;20107;-74
2021/09/30 13:22:34;;;;;;;2.17;1.13;;;;;;;17.92;61.80;98893.03;5030838;28;20042;-77
2021/09/30 13:25:07;;;;;;;1.95;1.10;;;;;;;18.14;62.01;98886.56;5032705;28;20053;-76
2021/09/30 13:27:35;;;;;;;2.42;1.10;;;;;;;18.24;61.37;98889.03;5030295;28;20050;-75
2021/09/30 13:30:04;;;;;;;1.98;1.10;;;;;;;18.23;62.04;98892.16;5029437;28;20024;-77
2021/09/30 13:32:30;;;;;;;3.08;1.25;;;;;;;18.00;61.92;98880.34;5026319;28;20029;-77
2021/09/30 13:34:57;;;;;;;2.40;1.17;;;;;;;18.01;58.42;98880.00;5031884;28;20026;-78
2021/09/30 13:37:23;;;;;;;5.53;1.92;;;;;;;18.06;60.73;98877.13;5028064;28;20072;-79
2021/09/30 13:39:49;;;;;;;2.42;1.35;;;;;;;17.90;63.33;98878.69;5031529;28;20028;-79
2021/09/30 13:42:14;;;;;;;4.00;2.05;;;;;;;18.05;64.96;98881.00;5030723;28;20030;-78
2021/09/30 13:44:40;;;;;;;3.72;1.40;;;;;;;17.69;64.83;98871.28;5030217;28;20502;-79
2021/09/30 13:47:06;;;;;;;2.38;1.23;;;;;;;17.69;65.43;98879.59;5014037;28;20033;-80
2021/09/30 13:49:32;;;;;;;5.60;1.40;;;;;;;17.63;66.98;98868.66;5008820;28;20133;-77
2021/09/30 13:51:57;;;;;;;3.05;1.45;;;;;;;17.53;67.55;98879.16;5030245;28;20021;-78
2021/09/30 13:54:23;;;;;;;2.38;1.20;;;;;;;17.50;68.48;98871.50;5029877;28;20037;-78
2021/09/30 13:56:48;;;;;;;4.45;1.35;;;;;;;17.72;67.22;98865.94;5028598;28;20033;-78
2021/09/30 13:59:14;;;;;;;3.70;1.58;;;;;;;17.67;67.01;98863.28;5027638;28;20032;-79
2021/09/30 14:01:39;;;;;;;2.60;1.35;;;;;;;17.66;66.77;98858.91;5031505;28;20059;-76
2021/09/30 14:04:05;;;;;;;3.83;1.60;;;;;;;17.75;67.11;98856.97;5028342;28;20488;-79
2021/09/30 14:06:30;;;;;;;4.47;1.50;;;;;;;17.83;66.56;98850.66;5013214;28;20463;-78
2021/09/30 14:08:56;;;;;;;2.60;1.10;;;;;;;17.82;60.62;98846.28;5009348;28;20049;-78
2021/09/30 14:11:23;;;;;;;2.45;1.00;;;;;;;17.76;61.59;98852.28;5010248;28;20083;-79
2021/09/30 14:13:49;;;;;;;2.80;1.25;;;;;;;17.68;61.81;98851.09;5008614;28;20060;-77
2021/09/30 14:16:14;;;;;;;4.78;1.20;;;;;;;17.51;63.11;98851.00;5010036;28;20049;-78
2021/09/30 14:18:40;;;;;;;2.60;1.20;;;;;;;17.54;63.36;98850.34;5016747;28;20013;-80
2021/09/30 14:21:06;;;;;;;2.50;1.30;;;;;;;17.49;66.63;98850.47;5049998;28;20052;-83
2021/09/30 14:23:34;;;;;;;2.22;1.08;;;;;;;17.32;65.30;98842.13;5049153;28;20089;-82
2021/09/30 14:26:00;;;;;;;3.75;2.05;;;;;;;17.43;66.58;98858.09;5056923;28;20005;-83
2021/09/30 14:28:26;;;;;;;2.95;1.33;;;;;;;17.47;66.57;98842.50;5051095;28;20012;-81